createdAt,value
2022-10-04T00:02:00.553Z,11.70
2022-10-04T00:04:31.439Z,11.67
2022-10-04T00:07:23.032Z,11.73
2022-10-04T00:09:57.522Z,11.66
2022-10-04T00:12:38.425Z,11.67
2022-10-04T00:15:20.199Z,11.70
2022-10-04T00:18:20.541Z,11.67
2022-10-04T00:20:53.280Z,11.70
2022-10-04T00:23:24.082Z,11.69
2022-10-04T00:25:53.088Z,11.70
2022-10-04T00:28:20.921Z,11.69
2022-10-04T00:31:19.527Z,11.70
2022-10-04T00:33:51.390Z,11.67
2022-10-04T00:36:25.027Z,11.67
2022-10-04T00:39:07.687Z,11.64
2022-10-04T00:41:47.675Z,11.66
2022-10-04T00:44:51.853Z,11.66
2022-10-04T00:47:31.708Z,11.64
2022-10-04T00:50:22.456Z,11.63
2022-10-04T00:52:57.677Z,11.64
2022-10-04T00:55:51.570Z,11.64
2022-10-04T00:58:25.480Z,11.69
2022-10-04T01:00:55.612Z,11.71
2022-10-04T01:03:37.368Z,11.71
2022-10-04T01:06:09.171Z,11.71
2022-10-04T01:08:47.417Z,11.70
2022-10-04T01:11:27.259Z,11.71
2022-10-04T01:14:01.893Z,11.70
2022-10-04T01:16:33.610Z,11.70
2022-10-04T01:19:21.640Z,11.71
2022-10-04T01:22:09.820Z,11.67
2022-10-04T01:24:43.143Z,11.69
2022-10-04T01:27:43.198Z,11.64
2022-10-04T01:30:14.769Z,11.64
2022-10-04T01:32:45.251Z,11.62
2022-10-04T01:35:15.246Z,11.59
2022-10-04T01:37:43.815Z,11.55
2022-10-04T01:40:12.043Z,11.50
2022-10-04T01:42:54.938Z,11.47
2022-10-04T01:45:46.774Z,11.39
2022-10-04T01:48:22.170Z,11.39
2022-10-04T01:50:59.499Z,11.30
2022-10-04T01:53:34.756Z,11.28
2022-10-04T01:56:10.936Z,11.26
2022-10-04T01:58:46.959Z,11.22
2022-10-04T02:01:32.846Z,11.19
2022-10-04T02:04:22.605Z,11.19
2022-10-04T02:06:56.579Z,11.15
2022-10-04T02:09:28.452Z,11.08
2022-10-04T02:11:59.101Z,11.05
2022-10-04T02:14:29.878Z,11.02
2022-10-04T02:16:58.654Z,11.00
2022-10-04T02:19:34.006Z,10.97
2022-10-04T02:22:07.205Z,10.93
2022-10-04T02:24:42.112Z,10.90
2022-10-04T02:27:10.457Z,10.85
2022-10-04T02:29:38.745Z,10.85
2022-10-04T02:32:27.216Z,10.83
2022-10-04T02:34:57.342Z,10.75
2022-10-04T02:37:27.485Z,10.68
2022-10-04T02:40:08.227Z,10.66
2022-10-04T02:42:46.802Z,10.60
2022-10-04T02:45:43.694Z,10.56
2022-10-04T02:48:52.378Z,10.50
2022-10-04T02:51:26.309Z,10.42
2022-10-04T02:54:21.282Z,10.38
2022-10-04T02:56:55.147Z,10.35
2022-10-04T02:59:23.482Z,10.32
2022-10-04T03:01:58.804Z,10.33
2022-10-04T03:04:37.641Z,10.29
2022-10-04T03:07:08.479Z,10.30
2022-10-04T03:09:38.079Z,10.42
2022-10-04T03:12:10.817Z,10.49
2022-10-04T03:14:39.467Z,10.59
2022-10-04T03:17:08.468Z,10.60
2022-10-04T03:19:38.811Z,10.59
2022-10-04T03:22:12.783Z,10.63
2022-10-04T03:24:46.925Z,10.61
2022-10-04T03:27:26.264Z,10.60
2022-10-04T03:29:59.028Z,10.53
2022-10-04T03:32:30.582Z,10.50
2022-10-04T03:35:02.743Z,10.47
2022-10-04T03:37:34.985Z,10.45
2022-10-04T03:40:04.604Z,10.39
2022-10-04T03:42:37.916Z,10.28
2022-10-04T03:45:14.021Z,10.25
2022-10-04T03:47:46.732Z,10.18
2022-10-04T03:50:26.482Z,10.05
2022-10-04T03:53:01.511Z,9.99
2022-10-04T03:55:34.235Z,9.91
2022-10-04T03:58:02.928Z,9.94
2022-10-04T04:00:31.558Z,9.95
2022-10-04T04:03:03.755Z,9.88
2022-10-04T04:05:45.858Z,9.84
2022-10-04T04:08:36.265Z,9.73
2022-10-04T04:11:06.957Z,9.69
2022-10-04T04:13:49.103Z,9.70
2022-10-04T04:16:19.137Z,9.57
2022-10-04T04:18:49.220Z,9.53
2022-10-04T04:21:20.089Z,9.51
2022-10-04T04:23:52.326Z,9.50
2022-10-04T04:26:20.089Z,9.47
2022-10-04T04:29:02.780Z,9.51
2022-10-04T04:31:56.302Z,9.43
2022-10-04T04:34:33.262Z,9.38
2022-10-04T04:37:03.763Z,9.35
2022-10-04T04:39:37.137Z,9.33
2022-10-04T04:42:05.860Z,9.36
2022-10-04T04:44:34.051Z,9.36
2022-10-04T04:47:05.601Z,9.33
2022-10-04T04:49:38.320Z,9.32
2022-10-04T04:52:13.557Z,9.28
2022-10-04T04:54:41.570Z,9.28
2022-10-04T04:57:09.361Z,9.26
2022-10-04T04:59:37.274Z,9.26
2022-10-04T05:02:25.197Z,9.30
2022-10-04T05:05:21.697Z,9.29
2022-10-04T05:07:50.302Z,9.33
2022-10-04T05:10:34.499Z,9.30
2022-10-04T05:13:04.247Z,9.19
2022-10-04T05:15:35.270Z,9.22
2022-10-04T05:18:30.489Z,9.29
2022-10-04T05:21:05.823Z,9.35
2022-10-04T05:23:35.033Z,9.42
2022-10-04T05:26:04.594Z,9.42
2022-10-04T05:28:34.253Z,9.49
2022-10-04T05:31:16.791Z,9.42
2022-10-04T05:33:52.261Z,9.40
2022-10-04T05:36:48.046Z,9.39
2022-10-04T05:39:34.247Z,9.33
2022-10-04T05:42:41.511Z,9.28
2022-10-04T05:45:23.380Z,9.28
2022-10-04T05:47:53.846Z,9.28
2022-10-04T05:50:35.418Z,9.30
2022-10-04T05:53:33.505Z,9.29
2022-10-04T05:56:34.814Z,9.35
2022-10-04T05:59:21.466Z,9.42
2022-10-04T06:01:52.199Z,9.43
2022-10-04T06:04:56.361Z,9.43
2022-10-04T06:07:37.476Z,9.42
2022-10-04T06:10:08.309Z,9.40
2022-10-04T06:13:04.539Z,9.40
2022-10-04T06:15:48.690Z,9.43
2022-10-04T06:18:31.310Z,9.43
2022-10-04T06:21:13.307Z,9.49
2022-10-04T06:23:56.940Z,9.53
2022-10-04T06:26:45.353Z,9.60
2022-10-04T06:29:21.210Z,9.71
2022-10-04T06:32:15.610Z,9.75
2022-10-04T06:34:58.965Z,9.84
2022-10-04T06:37:57.244Z,9.90
2022-10-04T06:40:47.014Z,9.94
2022-10-04T06:43:47.081Z,9.99
2022-10-04T06:46:56.379Z,10.08
2022-10-04T06:49:41.449Z,10.15
2022-10-04T06:52:40.618Z,10.19
2022-10-04T06:55:37.867Z,10.32
2022-10-04T06:58:24.768Z,10.49
2022-10-04T07:01:03.601Z,10.90
2022-10-04T07:03:32.645Z,11.47
2022-10-04T07:06:05.697Z,11.80
2022-10-04T07:08:52.533Z,12.25
2022-10-04T07:11:32.776Z,12.01
2022-10-04T07:14:44.990Z,11.70
2022-10-04T07:17:24.530Z,11.46
2022-10-04T07:19:56.787Z,11.91
2022-10-04T07:22:57.828Z,12.17
2022-10-04T07:25:33.937Z,12.57
2022-10-04T07:28:33.592Z,12.64
2022-10-04T07:31:09.610Z,13.69
2022-10-04T07:33:52.366Z,14.26
2022-10-04T07:36:33.059Z,13.91
2022-10-04T07:39:20.901Z,13.12
2022-10-04T07:42:00.193Z,12.97
2022-10-04T07:44:40.866Z,12.84
2022-10-04T07:47:20.456Z,12.63
2022-10-04T07:49:53.886Z,12.64
2022-10-04T07:52:33.888Z,12.68
2022-10-04T07:55:23.088Z,13.01
2022-10-04T07:58:07.336Z,13.14
2022-10-04T08:01:07.207Z,13.18
2022-10-04T08:03:47.213Z,13.18
2022-10-04T08:06:39.550Z,13.38
2022-10-04T08:09:41.970Z,13.60
2022-10-04T08:12:24.196Z,13.93
2022-10-04T08:14:54.761Z,14.22
2022-10-04T08:17:51.659Z,14.46
2022-10-04T08:20:47.869Z,14.79
2022-10-04T08:23:42.391Z,15.00
2022-10-04T08:26:40.579Z,15.10
2022-10-04T08:29:36.485Z,15.00
2022-10-04T08:32:23.445Z,15.10
2022-10-04T08:35:03.071Z,15.19
2022-10-04T08:37:45.949Z,15.15
2022-10-04T08:40:33.273Z,15.18
2022-10-04T08:43:44.593Z,15.12
2022-10-04T08:46:32.096Z,15.10
2022-10-04T08:49:35.665Z,15.31
2022-10-04T08:52:48.899Z,15.35
2022-10-04T08:55:16.896Z,15.59
2022-10-04T08:57:45.198Z,15.55
2022-10-04T09:00:20.556Z,15.56
2022-10-04T09:03:16.853Z,15.71
2022-10-04T09:05:50.438Z,15.77
2022-10-04T09:08:19.074Z,15.80
2022-10-04T09:11:38.328Z,15.67
2022-10-04T09:14:51.297Z,15.76
2022-10-04T09:18:13.157Z,15.84
2022-10-04T09:21:18.795Z,15.93
2022-10-04T09:24:28.733Z,16.00
2022-10-04T09:27:03.574Z,16.00
2022-10-04T09:30:01.555Z,15.90
2022-10-04T09:33:01.961Z,15.89
2022-10-04T09:35:42.114Z,16.05
2022-10-04T09:38:41.833Z,16.28
2022-10-04T09:41:40.363Z,16.44
2022-10-04T09:44:40.466Z,16.46
2022-10-04T09:47:24.278Z,16.56
2022-10-04T09:50:20.557Z,16.63
2022-10-04T09:53:13.812Z,16.46
2022-10-04T09:56:25.097Z,16.56
2022-10-04T09:59:25.710Z,16.56
2022-10-04T10:02:31.456Z,16.60
2022-10-04T10:05:28.024Z,16.55
2022-10-04T10:08:23.870Z,16.39
2022-10-04T10:11:33.672Z,16.30
2022-10-04T10:14:34.429Z,16.39
2022-10-04T10:17:23.805Z,16.45
2022-10-04T10:20:03.996Z,16.42
2022-10-04T10:22:46.095Z,16.60
2022-10-04T10:25:29.268Z,16.79
2022-10-04T10:28:02.937Z,16.99
2022-10-04T10:30:56.716Z,17.10
2022-10-04T10:33:45.505Z,17.07
2022-10-04T10:36:22.189Z,17.14
2022-10-04T10:39:01.249Z,17.22
2022-10-04T10:41:35.633Z,17.29
2022-10-04T10:44:47.910Z,17.27
2022-10-04T10:47:34.518Z,17.31
2022-10-04T10:50:58.452Z,17.40
2022-10-04T10:53:50.542Z,17.45
2022-10-04T10:56:35.299Z,17.52
2022-10-04T10:59:22.743Z,17.50
2022-10-04T11:02:37.220Z,17.52
2022-10-04T11:05:20.478Z,17.67
2022-10-04T11:08:27.746Z,17.66
2022-10-04T11:11:37.178Z,17.66
2022-10-04T11:14:27.228Z,17.72
2022-10-04T11:17:21.337Z,17.69
2022-10-04T11:20:04.304Z,17.67
2022-10-04T11:23:01.996Z,17.66
2022-10-04T11:25:39.796Z,17.82
2022-10-04T11:28:47.227Z,17.90
2022-10-04T11:31:57.314Z,17.77
2022-10-04T11:34:47.637Z,17.97
2022-10-04T11:37:41.465Z,17.87
2022-10-04T11:40:31.315Z,17.82
2022-10-04T11:43:24.759Z,17.62
2022-10-04T11:46:33.744Z,17.53
2022-10-04T11:49:21.436Z,17.49
2022-10-04T11:52:07.954Z,17.48
2022-10-04T11:54:47.952Z,17.50
2022-10-04T11:57:39.123Z,17.45
2022-10-04T12:00:24.805Z,17.40
2022-10-04T12:03:05.600Z,17.55
2022-10-04T12:05:51.251Z,17.83
2022-10-04T12:08:25.412Z,18.08
2022-10-04T12:11:14.921Z,18.32
2022-10-04T12:14:02.438Z,18.17
2022-10-04T12:16:31.145Z,18.02
2022-10-04T12:19:34.829Z,18.08
2022-10-04T12:22:41.553Z,18.15
2022-10-04T12:25:44.395Z,18.31
2022-10-04T12:28:42.679Z,18.11
2022-10-04T12:31:25.529Z,18.02
2022-10-04T12:34:03.976Z,17.89
2022-10-04T12:36:50.515Z,17.98
2022-10-04T12:39:34.045Z,18.12
2022-10-04T12:42:29.207Z,18.19
2022-10-04T12:45:40.527Z,18.29
2022-10-04T12:48:14.752Z,18.34
2022-10-04T12:50:54.628Z,18.46
2022-10-04T12:53:58.571Z,18.72
2022-10-04T12:57:04.380Z,18.59
2022-10-04T12:59:59.641Z,18.12
2022-10-04T13:02:49.387Z,18.21
2022-10-04T13:05:54.498Z,18.27
2022-10-04T13:08:46.991Z,18.42
2022-10-04T13:11:33.899Z,18.46
2022-10-04T13:14:20.395Z,18.55
2022-10-04T13:17:35.375Z,18.52
2022-10-04T13:20:19.135Z,18.45
2022-10-04T13:23:21.984Z,18.32
2022-10-04T13:26:12.305Z,18.31
2022-10-04T13:28:53.763Z,18.31
2022-10-04T13:31:45.865Z,18.21
2022-10-04T13:34:43.097Z,18.21
2022-10-04T13:37:30.554Z,18.24
2022-10-04T13:40:21.565Z,18.32
2022-10-04T13:43:12.750Z,18.42
2022-10-04T13:46:02.541Z,18.27
2022-10-04T13:48:51.672Z,18.25
2022-10-04T13:51:44.112Z,18.22
2022-10-04T13:54:49.942Z,18.31
2022-10-04T13:57:30.868Z,18.38
2022-10-04T14:00:37.001Z,18.18
2022-10-04T14:03:30.746Z,18.08
2022-10-04T14:06:19.789Z,18.10
2022-10-04T14:09:13.184Z,18.19
2022-10-04T14:11:47.774Z,18.19
2022-10-04T14:14:43.718Z,18.19
2022-10-04T14:17:23.893Z,18.10
2022-10-04T14:20:24.012Z,18.11
2022-10-04T14:23:26.522Z,18.04
2022-10-04T14:26:05.069Z,18.00
2022-10-04T14:28:46.765Z,17.97
2022-10-04T14:31:52.339Z,17.90
2022-10-04T14:34:40.400Z,17.84
2022-10-04T14:37:37.782Z,17.84
2022-10-04T14:40:48.359Z,17.83
2022-10-04T14:43:28.121Z,17.76
2022-10-04T14:46:34.725Z,17.67
2022-10-04T14:49:11.441Z,17.61
2022-10-04T14:51:39.581Z,17.62
2022-10-04T14:54:22.834Z,17.62
2022-10-04T14:57:21.738Z,17.57
2022-10-04T15:00:15.777Z,17.49
2022-10-04T15:03:25.563Z,17.48
2022-10-04T15:05:53.454Z,17.40
2022-10-04T15:08:25.127Z,17.40
2022-10-04T15:10:58.385Z,17.40
2022-10-04T15:13:55.884Z,17.43
2022-10-04T15:16:50.336Z,17.43
2022-10-04T15:19:20.855Z,17.53
2022-10-04T15:22:21.090Z,17.59
2022-10-04T15:24:53.334Z,17.61
2022-10-04T15:27:32.998Z,17.62
2022-10-04T15:30:04.144Z,17.63
2022-10-04T15:32:50.471Z,17.62
2022-10-04T15:35:40.822Z,17.67
2022-10-04T15:38:42.457Z,17.73
2022-10-04T15:41:35.316Z,17.77
2022-10-04T15:44:12.721Z,17.69
2022-10-04T15:46:52.253Z,17.70
2022-10-04T15:49:49.313Z,17.73
2022-10-04T15:52:41.291Z,17.69
2022-10-04T15:55:36.630Z,17.67
2022-10-04T15:58:15.320Z,17.56
2022-10-04T16:00:51.764Z,17.53
2022-10-04T16:04:00.323Z,17.50
2022-10-04T16:06:44.057Z,17.42
2022-10-04T16:09:24.087Z,17.32
2022-10-04T16:12:17.850Z,17.27
2022-10-04T16:15:08.268Z,17.14
2022-10-04T16:17:44.423Z,17.00
2022-10-04T16:20:30.005Z,16.88
2022-10-04T16:23:28.695Z,16.81
2022-10-04T16:25:59.359Z,16.76
2022-10-04T16:28:46.207Z,16.69
2022-10-04T16:31:26.966Z,16.60
2022-10-04T16:34:15.678Z,16.48
2022-10-04T16:37:00.434Z,16.38
2022-10-04T16:39:54.953Z,16.28
2022-10-04T16:42:35.158Z,16.21
2022-10-04T16:45:09.224Z,16.14
2022-10-04T16:47:52.771Z,16.01
2022-10-04T16:50:49.416Z,15.91
2022-10-04T16:53:40.646Z,15.83
2022-10-04T16:56:18.604Z,15.77
2022-10-04T16:58:59.393Z,15.69
2022-10-04T17:01:45.145Z,15.62
2022-10-04T17:04:49.298Z,15.52
2022-10-04T17:07:36.116Z,15.45
2022-10-04T17:10:40.304Z,15.35
2022-10-04T17:13:28.852Z,15.29
2022-10-04T17:16:12.068Z,15.19
2022-10-04T17:19:16.003Z,15.14
2022-10-04T17:21:58.674Z,15.10
2022-10-04T17:24:32.670Z,15.08
2022-10-04T17:27:22.525Z,15.12
2022-10-04T17:29:58.501Z,15.12
2022-10-04T17:32:35.630Z,15.18
2022-10-04T17:35:35.001Z,15.22
2022-10-04T17:38:17.376Z,15.27
2022-10-04T17:40:59.687Z,15.27
2022-10-04T17:43:55.732Z,15.28
2022-10-04T17:46:34.754Z,15.27
2022-10-04T17:49:54.470Z,15.27
2022-10-04T17:52:52.933Z,15.24
2022-10-04T17:55:39.431Z,15.27
2022-10-04T17:58:18.184Z,15.27
2022-10-04T18:01:08.077Z,15.24
2022-10-04T18:03:46.679Z,15.27
2022-10-04T18:06:39.230Z,15.25
2022-10-04T18:09:29.772Z,15.28
2022-10-04T18:12:20.871Z,15.27
2022-10-04T18:15:23.732Z,15.29
2022-10-04T18:17:53.762Z,15.31
2022-10-04T18:20:35.094Z,15.29
2022-10-04T18:23:21.137Z,15.31
2022-10-04T18:25:59.835Z,15.31
2022-10-04T18:28:28.035Z,15.27
2022-10-04T18:31:00.426Z,15.32
2022-10-04T18:33:50.124Z,15.27
2022-10-04T18:36:31.270Z,15.29
2022-10-04T18:39:11.603Z,15.28
2022-10-04T18:42:07.151Z,15.28
2022-10-04T18:45:03.055Z,15.29
2022-10-04T18:47:40.452Z,15.28
2022-10-04T18:50:25.066Z,15.27
2022-10-04T18:53:13.662Z,15.27
2022-10-04T18:56:07.790Z,15.27
2022-10-04T18:59:00.593Z,15.28
2022-10-04T19:02:02.961Z,15.29
2022-10-04T19:04:59.152Z,15.24
2022-10-04T19:07:57.335Z,15.27
2022-10-04T19:10:47.397Z,15.29
2022-10-04T19:13:21.608Z,15.28
2022-10-04T19:16:16.850Z,15.29
2022-10-04T19:19:05.005Z,15.29
2022-10-04T19:22:01.192Z,15.29
2022-10-04T19:24:38.440Z,15.34
2022-10-04T19:27:22.017Z,15.38
2022-10-04T19:30:10.460Z,15.43
2022-10-04T19:33:14.514Z,15.49
2022-10-04T19:35:58.435Z,15.56
2022-10-04T19:38:44.287Z,15.57
2022-10-04T19:41:30.681Z,15.70
2022-10-04T19:44:30.304Z,15.69
2022-10-04T19:47:08.773Z,15.70
2022-10-04T19:50:03.871Z,15.70
2022-10-04T19:52:58.585Z,15.71
2022-10-04T19:55:30.498Z,15.77
2022-10-04T19:58:18.290Z,15.77
2022-10-04T20:00:50.497Z,15.80
2022-10-04T20:03:19.641Z,15.83
2022-10-04T20:05:49.992Z,15.86
2022-10-04T20:08:47.498Z,15.91
2022-10-04T20:11:28.388Z,15.93
2022-10-04T20:14:19.897Z,15.90
2022-10-04T20:16:57.066Z,15.91
2022-10-04T20:19:31.579Z,15.96
2022-10-04T20:22:10.286Z,15.97
2022-10-04T20:24:41.395Z,15.97
2022-10-04T20:27:31.863Z,16.00
2022-10-04T20:30:04.663Z,15.94
2022-10-04T20:32:37.012Z,15.90
2022-10-04T20:35:14.412Z,15.93
2022-10-04T20:37:44.986Z,15.91
2022-10-04T20:40:34.752Z,15.90
2022-10-04T20:43:14.681Z,15.91
2022-10-04T20:45:55.435Z,15.90
2022-10-04T20:48:30.147Z,15.93
2022-10-04T20:51:06.455Z,15.93
2022-10-04T20:53:36.890Z,15.94
2022-10-04T20:56:19.072Z,15.91
2022-10-04T20:58:59.657Z,15.90
2022-10-04T21:01:42.571Z,15.89
2022-10-04T21:04:17.570Z,15.90
2022-10-04T21:06:58.583Z,15.90
2022-10-04T21:09:28.086Z,15.93
2022-10-04T21:11:57.201Z,15.87
2022-10-04T21:14:27.579Z,15.86
2022-10-04T21:17:02.417Z,15.87
2022-10-04T21:19:33.754Z,15.89
2022-10-04T21:22:09.238Z,15.83
2022-10-04T21:24:38.274Z,15.84
2022-10-04T21:27:11.836Z,15.84
2022-10-04T21:29:40.303Z,15.80
2022-10-04T21:32:08.252Z,15.79
2022-10-04T21:34:54.091Z,15.80
2022-10-04T21:37:23.009Z,15.77
2022-10-04T21:39:51.025Z,15.80
2022-10-04T21:42:20.764Z,15.79
2022-10-04T21:44:49.239Z,15.80
2022-10-04T21:47:18.236Z,15.76
2022-10-04T21:49:46.324Z,15.79
2022-10-04T21:52:14.856Z,15.74
2022-10-04T21:54:43.119Z,15.71
2022-10-04T21:57:11.729Z,15.69
2022-10-04T21:59:40.459Z,15.70
2022-10-04T22:02:08.661Z,15.69
2022-10-04T22:04:38.219Z,15.74
2022-10-04T22:07:06.468Z,15.73
2022-10-04T22:09:36.122Z,15.71
2022-10-04T22:12:04.650Z,15.71
2022-10-04T22:14:32.821Z,15.69
2022-10-04T22:17:01.162Z,15.70
2022-10-04T22:19:29.400Z,15.69
2022-10-04T22:21:57.552Z,15.70
2022-10-04T22:24:25.695Z,15.70
2022-10-04T22:26:53.610Z,15.74
2022-10-04T22:29:21.824Z,15.70
2022-10-04T22:31:53.280Z,15.65
2022-10-04T22:34:23.430Z,15.69
2022-10-04T22:36:53.165Z,15.65
2022-10-04T22:39:22.047Z,15.63
2022-10-04T22:41:56.144Z,15.62
2022-10-04T22:44:29.366Z,15.63
2022-10-04T22:47:00.171Z,15.59
2022-10-04T22:49:34.056Z,15.60
2022-10-04T22:52:13.846Z,15.60
2022-10-04T22:54:48.776Z,15.60
2022-10-04T22:57:19.176Z,15.59
2022-10-04T22:59:52.468Z,15.59
2022-10-04T23:02:29.166Z,15.53
2022-10-04T23:05:02.214Z,15.49
2022-10-04T23:07:32.829Z,15.49
2022-10-04T23:10:06.095Z,15.49
2022-10-04T23:12:34.164Z,15.47
2022-10-04T23:15:02.806Z,15.46
2022-10-04T23:17:37.028Z,15.43
2022-10-04T23:20:13.735Z,15.43
2022-10-04T23:22:45.329Z,15.40
2022-10-04T23:25:45.903Z,15.38
2022-10-04T23:28:16.584Z,15.38
2022-10-04T23:30:48.378Z,15.39
2022-10-04T23:33:21.956Z,15.36
2022-10-04T23:35:51.190Z,15.36
2022-10-04T23:38:21.945Z,15.31
2022-10-04T23:40:49.797Z,15.29
2022-10-04T23:43:25.141Z,15.31
2022-10-04T23:45:57.909Z,15.31
2022-10-04T23:48:28.224Z,15.29
2022-10-04T23:51:00.287Z,15.29
2022-10-04T23:53:30.986Z,15.31
2022-10-04T23:56:04.471Z,15.31
2022-10-04T23:58:37.368Z,15.31
